| time (UTC) | temp C | wind direction | speed KPH | gust KPH | rain 1hr cm | rain 24hr cm | rain mn cm | humidity % | barometer mb |
| 20260507161552 | 15 | 192 | 4.8 | 9.7 | 0.00 | 0.00 | 0.00 | 88 | 1016.1 |
| 20260507160042 | 16 | 200 | 4.8 | 6.4 | 0.00 | 0.00 | 0.00 | 87 | 1016.2 |
| 20260507154541 | 16 | 183 | 1.6 | 3.2 | 0.00 | 0.00 | 0.00 | 86 | 1016.4 |
| 20260507153041 | 16 | 265 | 0.0 | 1.6 | 0.00 | 0.00 | 0.00 | 88 | 1016.4 |
| 20260507151536 | 15 | 266 | 1.6 | 3.2 | 0.00 | 0.00 | 0.00 | 87 | 1016.3 |
| 20260507150035 | 15 | 308 | 0.0 | 3.2 | 0.00 | 0.00 | 0.00 | 87 | 1016.1 |
| 20260507144536 | 16 | 308 | 0.0 | 3.2 | 0.00 | 0.00 | 0.00 | 86 | 1016.1 |
| 20260507143030 | 15 | 329 | 0.0 | 3.2 | 0.00 | 0.00 | 0.00 | 88 | 1016.0 |
| 20260507141524 | 15 | 337 | 0.0 | 3.2 | 0.00 | 0.00 | 0.00 | 88 | 1015.7 |
| 20260507140022 | 14 | 337 | 0.0 | 4.8 | 0.00 | 0.00 | 0.00 | 89 | 1015.6 |
| 20260507134519 | 14 | 11 | 1.6 | 3.2 | 0.00 | 0.00 | 0.00 | 88 | 1015.3 |
| 20260507133024 | 14 | 26 | 0.0 | 0.0 | 0.00 | 0.00 | 0.00 | 88 | 1015.1 |
| 20260507131519 | 14 | 26 | 0.0 | 1.6 | 0.00 | 0.00 | 0.00 | 88 | 1014.9 |
| 20260507130017 | 14 | 26 | 0.0 | 3.2 | 0.00 | 0.00 | 0.00 | 88 | 1014.9 |
| 20260507124520 | 13 | 26 | 1.6 | 4.8 | 0.00 | 0.00 | 0.00 | 87 | 1014.9 |
| 20260507123019 | 14 | 48 | 0.0 | 3.2 | 0.00 | 0.00 | 0.00 | 87 | 1014.8 |
| 20260507121516 | 14 | 55 | 0.0 | 3.2 | 0.00 | 0.00 | 0.00 | 87 | 1014.9 |
| 20260507120014 | 14 | 18 | 3.2 | 6.4 | 0.00 | 0.00 | 0.00 | 86 | 1014.9 |
| 20260507114513 | 14 | 24 | 3.2 | 6.4 | 0.00 | 0.00 | 0.00 | 87 | 1014.9 |
| 20260507113033 | 13 | 28 | 3.2 | 6.4 | 0.00 | 0.00 | 0.00 | 86 | 1014.9 |
| 20260507111511 | 13 | 5 | 4.8 | 6.4 | 0.00 | 0.00 | 0.00 | 86 | 1015.0 |
| 20260507110011 | 14 | 17 | 3.2 | 4.8 | 0.00 | 0.00 | 0.00 | 86 | 1015.2 |
| 20260507104506 | 14 | 360 | 1.6 | 3.2 | 0.00 | 0.00 | 0.00 | 86 | 1015.2 |
| 20260507103005 | 14 | 17 | 1.6 | 4.8 | 0.00 | 0.00 | 0.00 | 86 | 1015.2 |
| 20260507101512 | 14 | 67 | 1.6 | 4.8 | 0.00 | 0.00 | 0.00 | 85 | 1015.3 |
| 20260507100002 | 15 | 62 | 0.0 | 0.0 | 0.00 | 0.00 | 0.00 | 86 | 1015.3 |
| 20260507094700 | 15 | 62 | 0.0 | 3.2 | 0.00 | 0.00 | 0.00 | 86 | 1015.4 |
| 20260507093058 | 15 | 53 | 0.0 | 3.2 | 0.00 | 0.00 | 0.00 | 86 | 1015.5 |
| 20260507091630 | 15 | 53 | 0.0 | 3.2 | 0.00 | 0.00 | 0.00 | 85 | 1015.7 |
| 20260507090054 | 15 | 28 | 0.0 | 1.6 | 0.00 | 0.00 | 0.00 | 85 | 1016.0 |
| 20260507084603 | 15 | 28 | 0.0 | 4.8 | 0.00 | 0.00 | 0.00 | 85 | 1016.1 |
| 20260507083049 | 15 | 355 | 3.2 | 6.4 | 0.00 | 0.00 | 0.00 | 86 | 1016.2 |
| 20260507081556 | 15 | 315 | 3.2 | 4.8 | 0.00 | 0.00 | 0.00 | 85 | 1016.3 |
| 20260507080046 | 15 | 298 | 0.0 | 3.2 | 0.00 | 0.00 | 0.00 | 84 | 1016.5 |
| 20260507074549 | 15 | 297 | 0.0 | 3.2 | 0.00 | 0.00 | 0.00 | 83 | 1016.3 |
| 20260507073043 | 15 | 294 | 1.6 | 4.8 | 0.00 | 0.00 | 0.00 | 83 | 1016.1 |
| 20260507071541 | 15 | 360 | 1.6 | 3.2 | 0.00 | 0.00 | 0.00 | 83 | 1016.2 |
| 20260507070039 | 15 | 342 | 3.2 | 8.0 | 0.00 | 0.00 | 0.00 | 84 | 1016.3 |
| 20260507064539 | 16 | 329 | 4.8 | 9.7 | 0.00 | 0.00 | 0.00 | 84 | 1016.3 |
| 20260507063041 | 16 | 300 | 9.7 | 12.9 | 0.00 | 0.00 | 0.00 | 83 | 1016.4 |
| 20260507061538 | 16 | 287 | 1.6 | 3.2 | 0.00 | 0.00 | 0.00 | 80 | 1016.4 |
| 20260507060036 | 16 | 301 | 3.2 | 6.4 | 0.00 | 0.00 | 0.00 | 79 | 1016.6 |
| 20260507054535 | 16 | 296 | 1.6 | 4.8 | 0.00 | 0.03 | 0.00 | 80 | 1016.6 |
| 20260507053035 | 16 | 330 | 3.2 | 4.8 | 0.00 | 0.03 | 0.00 | 80 | 1016.5 |
| 20260507051535 | 16 | 304 | 1.6 | 6.4 | 0.00 | 0.03 | 0.00 | 80 | 1016.4 |
| 20260507050034 | 16 | 317 | 1.6 | 6.4 | 0.00 | 0.03 | 0.00 | 81 | 1016.4 |
| 20260507044534 | 16 | 315 | 8.0 | 14.5 | 0.00 | 0.03 | 0.00 | 82 | 1016.5 |
| 20260507043038 | 16 | 302 | 14.5 | 20.9 | 0.00 | 0.03 | 0.00 | 83 | 1016.4 |
| 20260507041532 | 16 | 294 | 19.3 | 22.5 | 0.00 | 0.03 | 0.00 | 82 | 1016.2 |
| 20260507040032 | 16 | 284 | 17.7 | 20.9 | 0.00 | 0.03 | 0.00 | 82 | 1016.2 |
| 20260507034535 | 16 | 294 | 17.7 | 24.1 | 0.00 | 0.03 | 0.00 | 82 | 1015.9 |
| 20260507033030 | 16 | 291 | 22.5 | 27.4 | 0.00 | 0.03 | 0.00 | 83 | 1015.9 |
| 20260507031530 | 16 | 288 | 22.5 | 25.7 | 0.00 | 0.03 | 0.00 | 87 | 1015.9 |
| 20260507030030 | 16 | 281 | 22.5 | 24.1 | 0.00 | 0.03 | 0.00 | 88 | 1015.8 |
| 20260507024529 | 16 | 292 | 19.3 | 25.7 | 0.00 | 0.03 | 0.00 | 89 | 1015.8 |
| 20260507023129 | 16 | 292 | 20.9 | 25.7 | 0.00 | 0.03 | 0.00 | 89 | 1015.6 |
| 20260507021527 | 16 | 284 | 22.5 | 25.7 | 0.00 | 0.03 | 0.00 | 89 | 1015.7 |
| 20260507020044 | 16 | 290 | 22.5 | 29.0 | 0.00 | 0.03 | 0.00 | 90 | 1015.5 |
| 20260507014527 | 16 | 288 | 22.5 | 27.4 | 0.00 | 0.03 | 0.00 | 90 | 1015.5 |
| 20260507013027 | 16 | 290 | 24.1 | 27.4 | 0.00 | 0.03 | 0.00 | 89 | 1015.6 |
| 20260507011538 | 16 | 286 | 24.1 | 29.0 | 0.00 | 0.03 | 0.00 | 90 | 1015.5 |
| 20260507010023 | 16 | 292 | 24.1 | 29.0 | 0.00 | 0.03 | 0.00 | 91 | 1015.3 |
| 20260507004519 | 16 | 291 | 24.1 | 29.0 | 0.00 | 0.03 | 0.00 | 90 | 1015.4 |
| 20260507003019 | 16 | 289 | 24.1 | 29.0 | 0.00 | 0.03 | 0.00 | 90 | 1015.3 |
| 20260507001544 | 16 | 285 | 24.1 | 29.0 | 0.00 | 0.03 | 0.00 | 89 | 1015.1 |
| 20260507000017 | 17 | 289 | 24.1 | 29.0 | 0.00 | 0.03 | 0.00 | 84 | 1015.2 |
| 20260506234517 | 17 | 273 | 22.5 | 27.4 | 0.00 | 0.03 | 0.00 | 82 | 1015.1 |
| 20260506233017 | 17 | 288 | 19.3 | 22.5 | 0.00 | 0.03 | 0.00 | 79 | 1015.0 |
| 20260506231513 | 17 | 284 | 16.1 | 19.3 | 0.00 | 0.03 | 0.00 | 82 | 1015.1 |
| 20260506230013 | 17 | 282 | 12.9 | 16.1 | 0.00 | 0.03 | 0.00 | 85 | 1015.2 |
| 20260506224508 | 16 | 285 | 14.5 | 17.7 | 0.00 | 0.03 | 0.00 | 86 | 1015.4 |
| 20260506223006 | 16 | 279 | 14.5 | 19.3 | 0.00 | 0.03 | 0.00 | 87 | 1015.7 |
| 20260506221505 | 16 | 269 | 16.1 | 24.1 | 0.00 | 0.03 | 0.00 | 87 | 1016.0 |
| 20260506220005 | 16 | 277 | 16.1 | 22.5 | 0.00 | 0.05 | 0.00 | 88 | 1016.0 |
| 20260506214503 | 16 | 284 | 17.7 | 22.5 | 0.00 | 0.05 | 0.00 | 87 | 1016.1 |
| 20260506213001 | 16 | 265 | 16.1 | 20.9 | 0.00 | 0.05 | 0.00 | 86 | 1016.2 |
| 20260506211600 | 16 | 271 | 16.1 | 20.9 | 0.00 | 0.05 | 0.00 | 86 | 1016.4 |
| 20260506204602 | 16 | 263 | 17.7 | 24.1 | 0.00 | 0.05 | 0.00 | 86 | 1016.7 |
| 20260506203121 | 16 | 269 | 17.7 | 22.5 | 0.00 | 0.05 | 0.00 | 86 | 1016.9 |
| 20260506194600 | 16 | 247 | 16.1 | 19.3 | 0.00 | 0.05 | 0.00 | 85 | 1017.1 |
| 20260506193105 | 16 | 261 | 14.5 | 17.7 | 0.00 | 0.05 | 0.00 | 86 | 1017.3 |
| 20260506191556 | 16 | 263 | 12.9 | 17.7 | 0.00 | 0.05 | 0.00 | 86 | 1017.4 |
| 20260506190056 | 16 | 251 | 14.5 | 17.7 | 0.00 | 0.05 | 0.00 | 86 | 1017.5 |
| 20260506184555 | 16 | 238 | 12.9 | 17.7 | 0.00 | 0.08 | 0.00 | 85 | 1017.6 |
| 20260506183103 | 16 | 235 | 11.3 | 16.1 | 0.00 | 0.08 | 0.00 | 85 | 1017.7 |
| 20260506181557 | 16 | 240 | 9.7 | 14.5 | 0.00 | 0.08 | 0.00 | 84 | 1017.8 |
| 20260506180054 | 16 | 225 | 8.0 | 14.5 | 0.00 | 0.08 | 0.00 | 85 | 1017.9 |
| 20260506174552 | 16 | 218 | 11.3 | 16.1 | 0.00 | 0.08 | 0.00 | 85 | 1017.7 |
| 20260506173058 | 15 | 178 | 9.7 | 12.9 | 0.00 | 0.08 | 0.00 | 85 | 1017.7 |
| 20260506171550 | 15 | 192 | 8.0 | 12.9 | 0.00 | 0.08 | 0.00 | 85 | 1017.8 |
| 20260506170054 | 15 | 184 | 6.4 | 11.3 | 0.00 | 0.08 | 0.00 | 84 | 1017.9 |
| 20260506164605 | 15 | 182 | 6.4 | 9.7 | 0.00 | 0.08 | 0.00 | 84 | 1018.0 |
| 20260506163058 | 15 | 185 | 6.4 | 9.7 | 0.00 | 0.08 | 0.00 | 84 | 1018.0 |